1987 ARLENE (1987220N34283)


On this page: IBTrACS data - Map and Plots - Positions - Intensities - Original source data

Summary

Start Aug 8
End Aug 28
Basin NA
LMI 65 kt
Sources hurdat_atl
atcf
In WMO? Yes
Previous storm 1987 CARY (WP)
Previous in basin 1987 MISSING (NA)
Concurrent storms 1987 HILARY (EP)
1987 IRWIN (EP)
1987 BETTY (WP)
1987 CARY (WP)
1987 ARLENE (NA)
1987 MISSING (NA)
1987 TD0810 (WP)
1987 MISSING (NA)
1987 JOVA (EP)
1987 BRET (NA)
1987 MISSING (WP)
1987 DINAH (WP)
1987 ED1 (WP)
1987 OKA (EP)
Next in basin 1987 MISSING (NA)
Next storm 1987 MISSING (NA)

top of page IBTrACS Data: File Access

top of page HURSAT Data: File Access

Image of storm

top of page Plots:

Map of storm track will not appear if FTP is down
Time series of cyclone Maximum Sustained Wind will not appear if FTP is down
Time series of cyclone Minimum Central Pressure will not appear if FTP is down

top of page Track Data:Position

hurdat_atl atcf
Date Lat Lon Lat Lon
1987-08-08 00:00:00 34.3 -77.5 34.3 -77.5
1987-08-08 06:00:00 33.8 -76.7 33.8 -76.7
1987-08-08 12:00:00 33.0 -76.0 33.0 -76.0
1987-08-08 18:00:00 32.0 -75.6 32.0 -75.6
1987-08-09 00:00:00 31.0 -75.2 31.0 -75.2
1987-08-09 06:00:00 30.0 -75.0 30.0 -75.0
1987-08-09 12:00:00 29.0 -75.1 29.0 -75.1
1987-08-09 18:00:00 28.1 -75.4 28.1 -75.4
1987-08-10 00:00:00 27.2 -75.8 27.2 -75.8
1987-08-10 06:00:00 26.3 -76.3 26.3 -76.3
1987-08-10 12:00:00 25.5 -76.9 25.5 -76.9
1987-08-10 18:00:00 25.0 -78.0 25.0 -78.0
1987-08-11 00:00:00 26.2 -78.2 26.2 -78.2
1987-08-11 06:00:00 27.2 -77.2 27.2 -77.2
1987-08-11 12:00:00 28.3 -75.7 28.3 -75.7
1987-08-11 18:00:00 29.4 -74.4 29.4 -74.4
1987-08-12 00:00:00 30.7 -73.2 30.7 -73.2
1987-08-12 06:00:00 31.4 -72.3 31.4 -72.3
1987-08-12 12:00:00 32.0 -71.0 32.0 -71.0
1987-08-12 18:00:00 32.4 -69.7 32.4 -69.7
1987-08-13 00:00:00 32.6 -68.3 32.6 -68.3
1987-08-13 06:00:00 32.9 -67.0 32.9 -67.0
1987-08-13 12:00:00 33.0 -65.5 33.0 -65.5
1987-08-13 18:00:00 33.0 -64.5 33.0 -64.5
1987-08-14 00:00:00 33.0 -63.6 33.0 -63.6
hurdat_atl atcf
1987-08-14 06:00:00 32.9 -62.8 32.9 -62.8
1987-08-14 12:00:00 32.8 -62.3 32.8 -62.3
1987-08-14 18:00:00 32.6 -61.8 32.6 -61.8
1987-08-15 00:00:00 32.4 -61.3 32.4 -61.3
1987-08-15 06:00:00 32.2 -60.8 32.2 -60.8
1987-08-15 12:00:00 31.7 -60.3 31.7 -60.3
1987-08-15 18:00:00 31.3 -60.0 31.3 -60.0
1987-08-16 00:00:00 30.9 -59.6 30.9 -59.6
1987-08-16 06:00:00 30.5 -59.3 30.5 -59.3
1987-08-16 12:00:00 30.2 -59.0 30.2 -59.0
1987-08-16 18:00:00 29.9 -58.7 29.9 -58.7
1987-08-17 00:00:00 29.8 -58.2 29.8 -58.2
1987-08-17 06:00:00 29.8 -57.8 29.8 -57.8
1987-08-17 12:00:00 29.9 -57.3 29.9 -57.3
1987-08-17 18:00:00 30.2 -56.8 30.2 -56.8
1987-08-18 00:00:00 30.9 -56.2 30.9 -56.2
1987-08-18 06:00:00 31.5 -55.7 31.5 -55.7
1987-08-18 12:00:00 32.4 -54.7 32.4 -54.7
1987-08-18 18:00:00 33.3 -53.5 33.3 -53.5
1987-08-19 00:00:00 34.0 -52.2 34.0 -52.2
1987-08-19 06:00:00 34.8 -50.8 34.8 -50.8
1987-08-19 12:00:00 35.4 -49.5 35.4 -49.5
1987-08-19 18:00:00 35.5 -47.5 35.5 -47.5
1987-08-20 00:00:00 35.0 -46.0 35.0 -46.0
hurdat_atl atcf
1987-08-20 06:00:00 34.5 -44.5 34.5 -44.5
1987-08-20 12:00:00 34.0 -43.5 34.0 -43.5
1987-08-20 18:00:00 33.8 -43.0 33.8 -43.0
1987-08-21 00:00:00 33.7 -42.7 33.7 -42.7
1987-08-21 06:00:00 33.6 -42.3 33.6 -42.3
1987-08-21 12:00:00 33.5 -42.0 33.5 -42.0
1987-08-21 18:00:00 34.5 -42.5 34.5 -42.5
1987-08-22 00:00:00 35.5 -43.0 35.5 -43.0
1987-08-22 06:00:00 36.5 -43.0 36.5 -43.0
1987-08-22 12:00:00 38.0 -43.0 38.0 -43.0
1987-08-22 18:00:00 39.5 -42.5 39.5 -42.5
1987-08-23 00:00:00 41.5 -41.0 41.5 -41.0
1987-08-23 06:00:00 44.0 -39.0 44.0 -39.0
1987-08-23 12:00:00 46.5 -36.5 46.5 -36.5
1987-08-23 18:00:00 48.5 -33.0 48.5 -33.0
1987-08-24 00:00:00 50.0 -30.0 50.0 -30.0
1987-08-24 06:00:00 50.5 -27.0 50.5 -27.0
1987-08-24 12:00:00 50.5 -23.5 50.5 -23.5
1987-08-24 18:00:00 50.0 -20.0 50.0 -20.0
1987-08-25 00:00:00 48.0 -18.0 48.0 -18.0
1987-08-25 06:00:00 46.0 -17.0 46.0 -17.0
1987-08-25 12:00:00 44.0 -16.5 44.0 -16.5
1987-08-25 18:00:00 43.0 -15.0 43.0 -15.0
1987-08-26 00:00:00 41.5 -14.5 41.5 -14.5
hurdat_atl atcf
1987-08-26 06:00:00 39.5 -14.0 39.5 -14.0
1987-08-26 12:00:00 37.5 -11.5 37.5 -11.5
1987-08-26 18:00:00 39.0 -8.0 39.0 -8.0
1987-08-27 00:00:00 39.0 -6.0 39.0 -6.0
1987-08-27 06:00:00 39.0 -5.0 39.0 -5.0
1987-08-27 12:00:00 39.0 -4.5 39.0 -4.5
1987-08-27 18:00:00 39.0 -4.0 39.0 -4.0
1987-08-28 00:00:00 39.0 -4.0 39.0 -4.0

top of pageTrack Data:Intensity

hurdat_atl atcf
Date Wind Pres Wind Pres
1987-08-08 00:00:00 10. 1016. 10. 1016.
1987-08-08 06:00:00 10. 1016. 10. 1016.
1987-08-08 12:00:00 10. 1015. 10. 1015.
1987-08-08 18:00:00 10. 1015. 10. 1015.
1987-08-09 00:00:00 10. 1014. 10. 1014.
1987-08-09 06:00:00 10. 1014. 10. 1014.
1987-08-09 12:00:00 15. 1013. 15. 1013.
1987-08-09 18:00:00 15. 1012. 15. 1012.
1987-08-10 00:00:00 15. 1011. 15. 1011.
1987-08-10 06:00:00 20. 1010. 20. 1010.
1987-08-10 12:00:00 20. 1009. 20. 1009.
1987-08-10 18:00:00 25. 1009. 25. 1009.
1987-08-11 00:00:00 25. 1009. 25. 1009.
1987-08-11 06:00:00 25. 1008. 25. 1008.
1987-08-11 12:00:00 25. 1008. 25. 1008.
1987-08-11 18:00:00 35. 1006. 35. 1006.
1987-08-12 00:00:00 40. 1002. 40. 1002.
1987-08-12 06:00:00 40. 1001. 40. 1001.
1987-08-12 12:00:00 45. 1000. 45. 1000.
1987-08-12 18:00:00 45. 999. 45. 999.
1987-08-13 00:00:00 55. 997. 55. 997.
1987-08-13 06:00:00 55. 997. 55. 997.
1987-08-13 12:00:00 55. 998. 55. 998.
1987-08-13 18:00:00 55. 999. 55. 999.
1987-08-14 00:00:00 50. 1002. 50. 1002.
hurdat_atl atcf
1987-08-14 06:00:00 45. 1003. 45. 1003.
1987-08-14 12:00:00 50. 996. 50. 996.
1987-08-14 18:00:00 55. 994. 55. 994.
1987-08-15 00:00:00 55. 994. 55. 994.
1987-08-15 06:00:00 55. 995. 55. 995.
1987-08-15 12:00:00 50. 996. 50. 996.
1987-08-15 18:00:00 45. 998. 45. 998.
1987-08-16 00:00:00 45. 999. 45. 999.
1987-08-16 06:00:00 45. 1000. 45. 1000.
1987-08-16 12:00:00 45. 1000. 45. 1000.
1987-08-16 18:00:00 45. 1000. 45. 1000.
1987-08-17 00:00:00 45. 1000. 45. 1000.
1987-08-17 06:00:00 45. 1001. 45. 1001.
1987-08-17 12:00:00 40. 1002. 40. 1002.
1987-08-17 18:00:00 40. 1003. 40. 1003.
1987-08-18 00:00:00 35. 1004. 35. 1004.
1987-08-18 06:00:00 35. 1005. 35. 1005.
1987-08-18 12:00:00 35. 1005. 35. 1005.
1987-08-18 18:00:00 35. 1005. 35. 1005.
1987-08-19 00:00:00 35. 1005. 35. 1005.
1987-08-19 06:00:00 35. 1005. 35. 1005.
1987-08-19 12:00:00 35. 1005. 35. 1005.
1987-08-19 18:00:00 35. 1005. 35. 1005.
1987-08-20 00:00:00 35. 1004. 35. 1004.
hurdat_atl atcf
1987-08-20 06:00:00 40. 1002. 40. 1002.
1987-08-20 12:00:00 40. 1000. 40. 1000.
1987-08-20 18:00:00 50. 997. 50. 997.
1987-08-21 00:00:00 55. 995. 55. 995.
1987-08-21 06:00:00 55. 994. 55. 994.
1987-08-21 12:00:00 55. 993. 55. 993.
1987-08-21 18:00:00 60. 991. 60. 991.
1987-08-22 00:00:00 60. 989. 60. 989.
1987-08-22 06:00:00 65. 988. 65. 988.
1987-08-22 12:00:00 65. 987. 65. 987.
1987-08-22 18:00:00 65. 987. 65. 987.
1987-08-23 00:00:00 65. 987. 65. 987.
1987-08-23 06:00:00 65. 987. 65. 987.
1987-08-23 12:00:00 65. 988. 65. 988.
1987-08-23 18:00:00 65. 988. 65. 988.
1987-08-24 00:00:00 60. 989. 60. 989.
1987-08-24 06:00:00 60. 991. 60. 991.
1987-08-24 12:00:00 60. 992. 60. 992.
1987-08-24 18:00:00 55. 995. 55. 995.
1987-08-25 00:00:00 50. 998. 50. 998.
1987-08-25 06:00:00 45. 1002. 45. 1002.
1987-08-25 12:00:00 35. 1006. 35. 1006.
1987-08-25 18:00:00 25. 1009. 25. 1009.
1987-08-26 00:00:00 20. 1010. 20. 1010.
hurdat_atl atcf
1987-08-26 06:00:00 15. 1011. 15. 1011.
1987-08-26 12:00:00 10. 1010. 10. 1010.
1987-08-26 18:00:00 10. 1009. 10. 1009.
1987-08-27 00:00:00 15. 1008. 15. 1008.
1987-08-27 06:00:00 15. 1008. 15. 1008.
1987-08-27 12:00:00 15. 1008. 15. 1008.
1987-08-27 18:00:00 10. 1008. 10. 1008.
1987-08-28 00:00:00 10. 1009. 10. 1009.

top of page Links to source data

Source Source file Format
hurdat_atl tracks1851to2011.txt:1138:ARLENE HURDAT
atcf bal021987.dat ATCF